createdAt,value
2022-08-07T00:00:53.502Z,2.17
2022-08-07T00:03:26.423Z,2.10
2022-08-07T00:06:06.350Z,2.10
2022-08-07T00:08:37.217Z,2.23
2022-08-07T00:11:13.159Z,2.27
2022-08-07T00:13:48.850Z,2.37
2022-08-07T00:16:21.636Z,1.83
2022-08-07T00:18:58.361Z,2.30
2022-08-07T00:21:56.914Z,2.00
2022-08-07T00:24:15.684Z,1.97
2022-08-07T00:26:58.883Z,1.93
2022-08-07T00:29:33.771Z,2.30
2022-08-07T00:32:06.916Z,1.67
2022-08-07T00:34:37.097Z,1.50
2022-08-07T00:37:05.741Z,1.73
2022-08-07T00:39:37.468Z,1.50
2022-08-07T00:42:13.976Z,1.83
2022-08-07T00:44:43.039Z,1.40
2022-08-07T00:47:15.913Z,2.10
2022-08-07T00:50:19.443Z,1.83
2022-08-07T00:52:51.079Z,1.70
2022-08-07T00:55:25.601Z,1.60
2022-08-07T00:58:10.611Z,2.10
2022-08-07T01:00:39.406Z,2.00
2022-08-07T01:03:54.624Z,1.90
2022-08-07T01:06:13.524Z,2.03
2022-08-07T01:08:53.588Z,2.60
2022-08-07T01:12:09.224Z,2.33
2022-08-07T01:14:12.232Z,2.47
2022-08-07T01:16:47.367Z,2.20
2022-08-07T01:19:19.109Z,2.50
2022-08-07T01:21:53.399Z,2.57
2022-08-07T01:24:24.534Z,2.57
2022-08-07T01:26:53.813Z,2.27
2022-08-07T01:29:27.649Z,2.20
2022-08-07T01:31:59.357Z,2.10
2022-08-07T01:34:31.618Z,2.30
2022-08-07T01:37:03.003Z,2.37
2022-08-07T01:39:40.687Z,2.47
2022-08-07T01:42:38.842Z,2.13
2022-08-07T01:45:15.917Z,2.33
2022-08-07T01:48:21.263Z,1.90
2022-08-07T01:50:40.211Z,2.57
2022-08-07T01:53:20.786Z,2.70
2022-08-07T01:55:52.842Z,2.40
2022-08-07T01:58:28.953Z,2.30
2022-08-07T02:01:25.208Z,2.00
2022-08-07T02:03:57.979Z,2.50
2022-08-07T02:06:31.260Z,2.50
2022-08-07T02:09:06.456Z,2.30
2022-08-07T02:12:02.806Z,2.37
2022-08-07T02:14:40.341Z,2.50
2022-08-07T02:17:11.213Z,2.50
2022-08-07T02:20:06.670Z,2.30
2022-08-07T02:22:32.384Z,3.03
2022-08-07T02:25:07.437Z,3.17
2022-08-07T02:27:44.436Z,2.27
2022-08-07T02:30:21.051Z,2.67
2022-08-07T02:33:00.743Z,3.27
2022-08-07T02:36:29.410Z,2.47
2022-08-07T02:38:31.992Z,2.53
2022-08-07T02:41:03.697Z,2.90
2022-08-07T02:43:34.743Z,2.70
2022-08-07T02:46:06.707Z,3.03
2022-08-07T02:48:35.834Z,3.00
2022-08-07T02:51:29.033Z,2.70
2022-08-07T02:54:01.471Z,3.03
2022-08-07T02:56:34.529Z,2.53
2022-08-07T02:59:07.330Z,3.03
2022-08-07T03:01:39.934Z,3.00
2022-08-07T03:04:12.954Z,2.50
2022-08-07T03:06:45.782Z,3.17
2022-08-07T03:09:43.850Z,2.77
2022-08-07T03:12:08.101Z,2.73
2022-08-07T03:14:52.194Z,3.00
2022-08-07T03:17:22.118Z,3.27
2022-08-07T03:19:54.493Z,3.43
2022-08-07T03:22:30.275Z,2.77
2022-08-07T03:25:00.366Z,2.70
2022-08-07T03:27:59.505Z,3.20
2022-08-07T03:30:20.765Z,2.67
2022-08-07T03:32:58.860Z,3.20
2022-08-07T03:35:43.483Z,3.03
2022-08-07T03:38:13.849Z,3.00
2022-08-07T03:40:44.466Z,3.40
2022-08-07T03:43:15.762Z,2.90
2022-08-07T03:45:47.775Z,3.50
2022-08-07T03:48:17.703Z,3.00
2022-08-07T03:50:52.164Z,3.00
2022-08-07T03:53:49.891Z,3.03
2022-08-07T03:56:32.812Z,3.17
2022-08-07T03:59:13.143Z,2.80
2022-08-07T04:01:45.696Z,2.97
2022-08-07T04:04:17.480Z,2.93
2022-08-07T04:06:51.679Z,2.60
2022-08-07T04:09:23.131Z,3.00
2022-08-07T04:12:26.725Z,2.87
2022-08-07T04:14:46.184Z,2.90
2022-08-07T04:17:21.110Z,3.00
2022-08-07T04:19:54.187Z,3.20
2022-08-07T04:22:29.133Z,2.93
2022-08-07T04:25:01.159Z,2.63
2022-08-07T04:27:35.525Z,2.90
2022-08-07T04:30:21.030Z,3.23
2022-08-07T04:32:58.035Z,2.90
2022-08-07T04:35:34.972Z,3.13
2022-08-07T04:38:07.973Z,2.60
2022-08-07T04:40:43.953Z,3.00
2022-08-07T04:44:09.620Z,2.67
2022-08-07T04:46:20.210Z,2.60
2022-08-07T04:49:07.477Z,2.83
2022-08-07T04:51:57.974Z,2.60
2022-08-07T04:54:35.255Z,2.47
2022-08-07T04:58:12.790Z,2.33
2022-08-07T05:00:30.035Z,2.17
2022-08-07T05:03:17.052Z,2.70
2022-08-07T05:06:19.175Z,1.90
2022-08-07T05:09:00.778Z,2.80
2022-08-07T05:11:57.766Z,2.40
2022-08-07T05:14:55.126Z,1.80
2022-08-07T05:17:52.869Z,2.17
2022-08-07T05:20:15.115Z,1.90
2022-08-07T05:22:47.922Z,2.20
2022-08-07T05:25:26.259Z,2.20
2022-08-07T05:28:20.675Z,2.03
2022-08-07T05:30:53.790Z,2.03
2022-08-07T05:33:24.287Z,2.40
2022-08-07T05:35:57.800Z,2.40
2022-08-07T05:38:58.236Z,1.90
2022-08-07T05:41:17.056Z,2.40
2022-08-07T05:44:12.392Z,2.30
2022-08-07T05:46:40.867Z,2.27
2022-08-07T05:49:14.372Z,2.03
2022-08-07T05:51:46.429Z,2.30
2022-08-07T05:54:30.731Z,1.90
2022-08-07T05:57:05.334Z,2.50
2022-08-07T05:59:55.759Z,1.70
2022-08-07T06:02:30.778Z,2.20
2022-08-07T06:05:04.587Z,1.80
2022-08-07T06:08:13.468Z,1.90
2022-08-07T06:10:25.948Z,1.67
2022-08-07T06:12:54.833Z,2.10
2022-08-07T06:15:39.035Z,2.33
2022-08-07T06:18:14.367Z,1.80
2022-08-07T06:20:50.068Z,2.00
2022-08-07T06:24:37.118Z,1.83
2022-08-07T06:26:27.515Z,1.67
2022-08-07T06:29:01.090Z,1.67
2022-08-07T06:31:47.030Z,1.97
2022-08-07T06:34:20.414Z,2.30
2022-08-07T06:36:52.007Z,1.70
2022-08-07T06:40:16.830Z,1.40
2022-08-07T06:42:17.776Z,1.50
2022-08-07T06:44:51.242Z,1.90
2022-08-07T06:47:21.004Z,1.30
2022-08-07T06:49:52.003Z,1.30
2022-08-07T06:52:35.546Z,1.50
2022-08-07T06:55:32.640Z,1.20
2022-08-07T06:58:01.964Z,1.30
2022-08-07T07:00:35.266Z,1.20
2022-08-07T07:03:08.659Z,1.30
2022-08-07T07:06:03.542Z,1.30
2022-08-07T07:08:31.140Z,1.03
2022-08-07T07:11:13.918Z,1.17
2022-08-07T07:14:01.340Z,0.90
2022-08-07T07:16:45.088Z,1.10
2022-08-07T07:19:56.441Z,1.63
2022-08-07T07:22:36.639Z,1.20
2022-08-07T07:25:13.829Z,1.00
2022-08-07T07:27:55.618Z,1.47
2022-08-07T07:30:38.721Z,1.10
2022-08-07T07:33:12.289Z,1.10
2022-08-07T07:36:04.656Z,1.03
2022-08-07T07:38:36.005Z,0.90
2022-08-07T07:41:08.583Z,1.17
2022-08-07T07:44:14.401Z,0.90
2022-08-07T07:46:40.465Z,0.93
2022-08-07T07:50:34.880Z,1.02
2022-08-07T07:52:18.826Z,1.05
2022-08-07T07:54:50.788Z,0.80
2022-08-07T07:57:25.891Z,1.15
2022-08-07T08:00:28.838Z,1.45
2022-08-07T08:03:16.707Z,1.08
2022-08-07T08:06:03.919Z,1.48
2022-08-07T08:08:36.843Z,1.35
2022-08-07T08:11:16.143Z,1.13
2022-08-07T08:13:54.227Z,0.88
2022-08-07T08:16:31.173Z,0.88
2022-08-07T08:19:18.028Z,0.88
2022-08-07T08:22:12.179Z,0.80
2022-08-07T08:25:18.325Z,1.38
2022-08-07T08:27:56.288Z,0.95
2022-08-07T08:30:27.343Z,0.70
2022-08-07T08:33:01.622Z,0.82
2022-08-07T08:35:42.873Z,1.20
2022-08-07T08:38:18.354Z,0.73
2022-08-07T08:40:57.125Z,0.70
2022-08-07T08:43:42.733Z,0.60
2022-08-07T08:46:21.096Z,1.38
2022-08-07T08:49:01.108Z,0.88
2022-08-07T08:52:01.010Z,0.60
2022-08-07T08:54:34.448Z,0.93
2022-08-07T08:57:08.622Z,1.02
2022-08-07T08:59:48.090Z,0.70
2022-08-07T09:02:35.111Z,0.70
2022-08-07T09:05:22.554Z,0.70
2022-08-07T09:08:04.665Z,0.80
2022-08-07T09:10:44.111Z,0.90
2022-08-07T09:13:36.912Z,0.95
2022-08-07T09:16:20.215Z,0.73
2022-08-07T09:19:51.203Z,1.02
2022-08-07T09:24:32.199Z,0.88
2022-08-07T09:25:18.362Z,0.90
2022-08-07T09:28:01.243Z,0.95
2022-08-07T09:30:46.328Z,0.85
2022-08-07T09:33:53.132Z,1.00
2022-08-07T09:36:35.875Z,0.80
2022-08-07T09:39:55.124Z,0.90
2022-08-07T09:42:35.516Z,1.20
2022-08-07T09:47:20.239Z,1.30
2022-08-07T09:48:18.882Z,0.95
2022-08-07T09:51:14.487Z,1.23
2022-08-07T09:53:48.895Z,1.00
2022-08-07T09:56:54.928Z,0.95
2022-08-07T10:00:00.774Z,0.80
2022-08-07T10:03:07.760Z,1.55
2022-08-07T10:06:17.427Z,0.90
2022-08-07T10:09:08.761Z,0.90
2022-08-07T10:12:00.483Z,1.00
2022-08-07T10:14:56.729Z,0.90
2022-08-07T10:18:08.959Z,0.80
2022-08-07T10:20:45.751Z,0.90
2022-08-07T10:24:05.193Z,0.70
2022-08-07T10:26:59.779Z,1.10
2022-08-07T10:29:59.912Z,1.15
2022-08-07T10:32:53.762Z,0.80
2022-08-07T10:35:55.229Z,0.88
2022-08-07T10:38:46.469Z,0.80
2022-08-07T10:41:52.893Z,0.88
2022-08-07T10:44:28.431Z,0.90
2022-08-07T10:47:14.695Z,1.10
2022-08-07T10:49:51.804Z,0.85
2022-08-07T10:52:31.895Z,1.10
2022-08-07T10:55:32.515Z,0.70
2022-08-07T10:58:15.112Z,0.68
2022-08-07T11:00:59.430Z,0.95
2022-08-07T11:03:52.969Z,1.13
2022-08-07T11:06:33.007Z,1.10
2022-08-07T11:09:11.316Z,0.85
2022-08-07T11:11:51.916Z,1.00
2022-08-07T11:14:45.087Z,1.00
2022-08-07T11:17:23.577Z,0.73
2022-08-07T11:20:19.640Z,0.90
2022-08-07T11:22:59.949Z,0.90
2022-08-07T11:25:42.184Z,0.95
2022-08-07T11:28:20.925Z,0.90
2022-08-07T11:30:58.031Z,0.80
2022-08-07T11:33:54.115Z,0.88
2022-08-07T11:36:45.236Z,1.00
2022-08-07T11:40:00.450Z,1.10
2022-08-07T11:42:42.255Z,1.20
2022-08-07T11:45:20.500Z,1.15
2022-08-07T11:48:29.698Z,0.85
2022-08-07T11:51:41.793Z,0.70
2022-08-07T11:54:25.284Z,0.90
2022-08-07T11:57:04.820Z,0.98
2022-08-07T12:00:10.138Z,0.90
2022-08-07T12:03:44.713Z,1.25
2022-08-07T12:06:37.033Z,0.90
2022-08-07T12:09:22.995Z,0.90
2022-08-07T12:12:10.281Z,0.90
2022-08-07T12:15:01.885Z,0.90
2022-08-07T12:17:59.228Z,1.35
2022-08-07T12:20:34.980Z,1.20
2022-08-07T12:24:06.329Z,1.10
2022-08-07T12:26:35.370Z,1.02
2022-08-07T12:29:14.176Z,0.80
2022-08-07T12:31:52.779Z,1.00
2022-08-07T12:34:38.699Z,0.80
2022-08-07T12:37:16.867Z,0.88
2022-08-07T12:39:54.562Z,0.77
2022-08-07T12:42:32.175Z,0.95
2022-08-07T12:45:08.711Z,0.70
2022-08-07T12:47:49.268Z,0.70
2022-08-07T12:50:34.096Z,1.17
2022-08-07T12:53:17.736Z,0.80
2022-08-07T12:56:02.057Z,0.82
2022-08-07T12:58:39.866Z,0.90
2022-08-07T13:01:28.233Z,1.20
2022-08-07T13:04:32.579Z,0.90
2022-08-07T13:08:12.380Z,0.93
2022-08-07T13:10:40.868Z,1.00
2022-08-07T13:13:48.016Z,0.70
2022-08-07T13:16:29.699Z,0.73
2022-08-07T13:19:18.224Z,0.80
2022-08-07T13:22:08.529Z,0.75
2022-08-07T13:24:54.178Z,0.55
2022-08-07T13:28:05.896Z,1.10
2022-08-07T13:30:19.654Z,0.82
2022-08-07T13:34:29.788Z,0.70
2022-08-07T13:36:09.820Z,0.80
2022-08-07T13:38:54.467Z,0.85
2022-08-07T13:41:33.854Z,1.10
2022-08-07T13:44:10.415Z,1.00
2022-08-07T13:46:49.431Z,0.80
2022-08-07T13:50:32.909Z,0.80
2022-08-07T13:52:32.481Z,0.85
2022-08-07T13:55:10.983Z,0.77
2022-08-07T13:57:57.936Z,1.05
2022-08-07T14:00:50.372Z,1.17
2022-08-07T14:04:01.597Z,0.93
2022-08-07T14:06:17.973Z,1.02
2022-08-07T14:08:53.660Z,1.02
2022-08-07T14:11:27.330Z,1.13
2022-08-07T14:14:18.642Z,1.02
2022-08-07T14:16:50.619Z,0.98
2022-08-07T14:20:40.040Z,0.82
2022-08-07T14:22:34.625Z,0.70
2022-08-07T14:25:10.946Z,0.80
2022-08-07T14:28:19.941Z,1.13
2022-08-07T14:30:33.268Z,1.00
2022-08-07T14:33:05.254Z,0.85
2022-08-07T14:35:43.381Z,0.60
2022-08-07T14:38:30.221Z,0.88
2022-08-07T14:41:04.293Z,1.13
2022-08-07T14:43:58.550Z,1.20
2022-08-07T14:49:56.860Z,0.77
2022-08-07T14:52:16.771Z,0.77
2022-08-07T14:57:57.851Z,1.00
2022-08-07T15:00:31.918Z,0.90
2022-08-07T15:03:16.485Z,0.80
2022-08-07T15:05:55.306Z,0.73
2022-08-07T15:08:50.160Z,0.63
2022-08-07T15:14:22.640Z,0.80
2022-08-07T15:17:00.559Z,0.70
2022-08-07T15:22:29.476Z,0.73
2022-08-07T15:25:17.834Z,1.10
2022-08-07T15:33:36.876Z,0.80
2022-08-07T15:36:09.012Z,0.63
2022-08-07T15:44:24.198Z,0.77
2022-08-07T15:47:03.279Z,1.00
2022-08-07T15:50:05.530Z,5.78
2022-08-07T15:52:30.830Z,1.27
2022-08-07T15:55:03.385Z,2.93
2022-08-07T15:57:48.247Z,1.43
2022-08-07T16:00:33.725Z,1.63
2022-08-07T16:03:06.593Z,1.00
2022-08-07T16:05:52.075Z,3.93
2022-08-07T16:08:30.889Z,9.23
2022-08-07T16:11:26.281Z,2.67
2022-08-07T16:14:10.795Z,1.20
2022-08-07T16:17:02.862Z,1.00
2022-08-07T16:20:04.667Z,1.47
2022-08-07T16:23:05.463Z,1.37
2022-08-07T16:25:54.360Z,0.97
2022-08-07T16:30:06.516Z,1.27
2022-08-07T16:31:50.087Z,1.00
2022-08-07T16:34:41.427Z,3.30
2022-08-07T16:38:06.752Z,1.50
2022-08-07T16:41:15.922Z,1.97
2022-08-07T16:44:47.261Z,2.40
2022-08-07T16:47:55.700Z,6.57
2022-08-07T16:50:48.454Z,1.40
2022-08-07T16:54:02.983Z,5.40
2022-08-07T16:56:53.276Z,9.27
2022-08-07T16:59:53.192Z,4.63
2022-08-07T17:02:53.025Z,1.93
2022-08-07T17:06:19.186Z,5.30
2022-08-07T17:09:10.651Z,1.10
2022-08-07T17:12:04.999Z,1.47
2022-08-07T17:14:49.822Z,1.13
2022-08-07T17:17:46.553Z,1.10
2022-08-07T17:20:29.931Z,1.30
2022-08-07T17:23:08.760Z,1.27
2022-08-07T17:25:55.506Z,1.23
2022-08-07T17:28:32.958Z,1.73
2022-08-07T17:31:16.675Z,1.27
2022-08-07T17:34:15.025Z,1.67
2022-08-07T17:36:58.376Z,1.50
2022-08-07T17:39:58.221Z,2.07
2022-08-07T17:42:59.797Z,1.43
2022-08-07T17:45:37.808Z,1.37
2022-08-07T17:48:16.750Z,1.20
2022-08-07T17:51:08.797Z,1.67
2022-08-07T17:54:00.672Z,1.40
2022-08-07T17:56:34.362Z,1.70
2022-08-07T17:59:17.022Z,1.93
2022-08-07T18:01:57.551Z,2.50
2022-08-07T18:04:46.383Z,2.57
2022-08-07T18:07:24.554Z,2.10
2022-08-07T18:10:09.983Z,2.50
2022-08-07T18:13:09.639Z,2.90
2022-08-07T18:16:03.681Z,9.07
2022-08-07T18:21:01.633Z,5.20
2022-08-07T18:22:02.325Z,7.20
2022-08-07T18:24:34.499Z,3.73
2022-08-07T18:27:38.469Z,4.67
2022-08-07T18:30:31.763Z,7.57
2022-08-07T18:33:55.210Z,6.87
2022-08-07T18:36:41.884Z,6.00
2022-08-07T18:40:07.412Z,6.73
2022-08-07T18:42:19.444Z,5.90
2022-08-07T18:45:43.376Z,6.20
2022-08-07T18:48:01.643Z,5.23
2022-08-07T18:50:50.632Z,5.20
2022-08-07T18:53:39.911Z,5.50
2022-08-07T18:56:18.696Z,7.60
2022-08-07T18:59:00.498Z,8.33
2022-08-07T19:02:19.351Z,7.20
2022-08-07T19:04:57.374Z,5.47
2022-08-07T19:07:37.802Z,8.20
2022-08-07T19:10:31.298Z,6.13
2022-08-07T19:13:10.107Z,3.80
2022-08-07T19:16:04.759Z,3.03
2022-08-07T19:18:46.631Z,2.20
2022-08-07T19:21:47.833Z,2.63
2022-08-07T19:24:30.620Z,2.10
2022-08-07T19:28:56.783Z,2.40
2022-08-07T19:31:06.122Z,2.40
2022-08-07T19:32:59.682Z,1.87
2022-08-07T19:35:33.742Z,1.93
2022-08-07T19:38:17.175Z,2.30
2022-08-07T19:40:49.843Z,1.63
2022-08-07T19:43:49.271Z,2.60
2022-08-07T19:46:19.521Z,2.10
2022-08-07T19:48:55.162Z,2.10
2022-08-07T19:51:52.636Z,2.07
2022-08-07T19:54:31.939Z,2.00
2022-08-07T19:58:00.427Z,1.97
2022-08-07T20:00:10.383Z,2.27
2022-08-07T20:02:51.984Z,2.60
2022-08-07T20:05:28.001Z,2.30
2022-08-07T20:08:02.925Z,2.87
2022-08-07T20:10:54.462Z,2.00
2022-08-07T20:13:41.716Z,2.53
2022-08-07T20:16:36.234Z,2.10
2022-08-07T20:19:10.673Z,2.67
2022-08-07T20:21:46.882Z,2.30
2022-08-07T20:24:22.359Z,2.47
2022-08-07T20:26:55.723Z,2.20
2022-08-07T20:29:48.737Z,2.00
2022-08-07T20:32:26.005Z,2.60
2022-08-07T20:35:07.885Z,1.93
2022-08-07T20:37:55.593Z,2.53
2022-08-07T20:40:51.588Z,2.13
2022-08-07T20:43:32.244Z,2.30
2022-08-07T20:46:28.339Z,2.10
2022-08-07T20:49:58.908Z,2.47
2022-08-07T20:51:51.483Z,2.33
2022-08-07T20:54:30.339Z,2.50
2022-08-07T20:57:05.006Z,2.20
2022-08-07T21:00:06.529Z,2.80
2022-08-07T21:02:54.226Z,2.27
2022-08-07T21:05:54.475Z,2.37
2022-08-07T21:08:38.246Z,2.73
2022-08-07T21:11:14.482Z,2.20
2022-08-07T21:14:16.394Z,2.10
2022-08-07T21:16:56.003Z,2.20
2022-08-07T21:19:32.539Z,1.80
2022-08-07T21:22:19.883Z,2.17
2022-08-07T21:25:12.220Z,1.93
2022-08-07T21:28:02.065Z,2.20
2022-08-07T21:30:44.889Z,2.50
2022-08-07T21:33:21.999Z,1.93
2022-08-07T21:36:05.177Z,2.00
2022-08-07T21:38:55.325Z,2.03
2022-08-07T21:41:38.408Z,2.10
2022-08-07T21:44:30.337Z,2.00
2022-08-07T21:47:07.357Z,2.23
2022-08-07T21:50:02.041Z,2.57
2022-08-07T21:52:45.676Z,1.90
2022-08-07T21:55:28.385Z,2.63
2022-08-07T21:58:12.178Z,2.47
2022-08-07T22:00:48.584Z,1.93
2022-08-07T22:03:31.093Z,2.33
2022-08-07T22:06:05.242Z,2.03
2022-08-07T22:08:41.862Z,2.80
2022-08-07T22:11:18.316Z,2.50
2022-08-07T22:13:55.403Z,2.17
2022-08-07T22:16:38.995Z,2.00
2022-08-07T22:19:20.237Z,2.40
2022-08-07T22:22:18.221Z,2.60
2022-08-07T22:25:07.748Z,2.40
2022-08-07T22:28:03.131Z,2.57
2022-08-07T22:30:41.632Z,2.10
2022-08-07T22:33:15.252Z,1.93
2022-08-07T22:35:50.105Z,3.00
2022-08-07T22:38:31.470Z,2.37
2022-08-07T22:41:07.471Z,2.90
2022-08-07T22:43:46.328Z,2.50
2022-08-07T22:47:03.526Z,2.20
2022-08-07T22:49:55.854Z,2.40
2022-08-07T22:52:57.210Z,2.97
2022-08-07T22:55:48.174Z,2.63
2022-08-07T22:58:41.659Z,2.73
2022-08-07T23:01:49.911Z,2.87
2022-08-07T23:04:56.686Z,2.80
2022-08-07T23:07:42.895Z,3.20
2022-08-07T23:10:38.480Z,3.33
2022-08-07T23:13:29.436Z,3.70
2022-08-07T23:16:46.723Z,3.40
2022-08-07T23:19:38.862Z,3.27
2022-08-07T23:22:34.152Z,2.83
2022-08-07T23:25:20.874Z,2.77
2022-08-07T23:28:21.548Z,3.27
2022-08-07T23:31:13.912Z,3.20
2022-08-07T23:34:38.259Z,3.57
2022-08-07T23:37:30.482Z,3.27
2022-08-07T23:40:19.355Z,2.87
2022-08-07T23:43:02.132Z,3.10
2022-08-07T23:46:02.624Z,2.80
2022-08-07T23:49:13.727Z,3.30
2022-08-07T23:53:00.072Z,3.17
2022-08-07T23:54:53.041Z,2.70
2022-08-07T23:57:29.392Z,3.20
